sensor_id;sensor_type;location;lat;lon;timestamp;pressure;altitude;pressure_sealevel;temperature;humidity
32081;BME280;18593;51.426;7.030;2023-03-14T00:00:29;98078.75;;;12.08;64.16
32081;BME280;18593;51.426;7.030;2023-03-14T00:02:56;98078.75;;;12.08;64.50
32081;BME280;18593;51.426;7.030;2023-03-14T00:05:23;98084.09;;;12.08;64.35
32081;BME280;18593;51.426;7.030;2023-03-14T00:07:50;98067.28;;;12.07;64.09
32081;BME280;18593;51.426;7.030;2023-03-14T00:10:17;98067.81;;;12.04;64.08
32081;BME280;18593;51.426;7.030;2023-03-14T00:12:46;98044.31;;;12.06;64.21
32081;BME280;18593;51.426;7.030;2023-03-14T00:15:13;98033.88;;;12.05;64.34
32081;BME280;18593;51.426;7.030;2023-03-14T00:17:42;98028.84;;;12.03;64.02
32081;BME280;18593;51.426;7.030;2023-03-14T00:20:11;98028.03;;;12.03;63.67
32081;BME280;18593;51.426;7.030;2023-03-14T00:22:38;98020.31;;;12.01;63.94
32081;BME280;18593;51.426;7.030;2023-03-14T00:25:06;98013.59;;;12.04;64.21
32081;BME280;18593;51.426;7.030;2023-03-14T00:27:47;98012.00;;;12.03;64.13
32081;BME280;18593;51.426;7.030;2023-03-14T00:30:37;98030.72;;;12.03;64.11
32081;BME280;18593;51.426;7.030;2023-03-14T00:33:04;98036.34;;;12.01;64.37
32081;BME280;18593;51.426;7.030;2023-03-14T00:35:31;98054.25;;;12.01;64.33
32081;BME280;18593;51.426;7.030;2023-03-14T00:37:58;98064.09;;;12.00;64.16
32081;BME280;18593;51.426;7.030;2023-03-14T00:40:25;98068.69;;;11.95;64.49
32081;BME280;18593;51.426;7.030;2023-03-14T00:42:52;98077.78;;;11.94;65.11
32081;BME280;18593;51.426;7.030;2023-03-14T00:45:19;98102.91;;;11.93;65.47
32081;BME280;18593;51.426;7.030;2023-03-14T00:47:47;98109.06;;;11.93;67.09
32081;BME280;18593;51.426;7.030;2023-03-14T00:50:14;98114.16;;;11.90;67.79
32081;BME280;18593;51.426;7.030;2023-03-14T00:52:41;98116.06;;;11.84;69.82
32081;BME280;18593;51.426;7.030;2023-03-14T00:55:08;98119.28;;;11.76;71.04
32081;BME280;18593;51.426;7.030;2023-03-14T00:57:35;98112.91;;;11.72;71.69
32081;BME280;18593;51.426;7.030;2023-03-14T01:00:03;98110.53;;;11.65;71.78
32081;BME280;18593;51.426;7.030;2023-03-14T01:02:33;98100.47;;;11.52;72.31
32081;BME280;18593;51.426;7.030;2023-03-14T01:05:03;98095.41;;;11.50;72.20
32081;BME280;18593;51.426;7.030;2023-03-14T01:07:30;98107.44;;;11.48;71.79
32081;BME280;18593;51.426;7.030;2023-03-14T01:09:57;98102.13;;;11.43;71.65
32081;BME280;18593;51.426;7.030;2023-03-14T01:12:24;98092.50;;;11.42;71.48
32081;BME280;18593;51.426;7.030;2023-03-14T01:14:51;98082.13;;;11.40;71.58
32081;BME280;18593;51.426;7.030;2023-03-14T01:17:18;98099.75;;;11.36;71.90
32081;BME280;18593;51.426;7.030;2023-03-14T01:19:45;98099.75;;;11.36;72.10
32081;BME280;18593;51.426;7.030;2023-03-14T01:22:13;98095.19;;;11.37;72.19
32081;BME280;18593;51.426;7.030;2023-03-14T01:24:40;98092.28;;;11.38;72.22
32081;BME280;18593;51.426;7.030;2023-03-14T01:27:07;98101.38;;;11.37;72.13
32081;BME280;18593;51.426;7.030;2023-03-14T01:29:34;98099.75;;;11.36;72.37
32081;BME280;18593;51.426;7.030;2023-03-14T01:32:02;98097.09;;;11.31;72.66
32081;BME280;18593;51.426;7.030;2023-03-14T01:34:29;98092.06;;;11.24;73.00
32081;BME280;18593;51.426;7.030;2023-03-14T01:36:56;98091.53;;;11.27;72.88
32081;BME280;18593;51.426;7.030;2023-03-14T01:39:24;98079.50;;;11.30;72.91
32081;BME280;18593;51.426;7.030;2023-03-14T01:41:51;98075.25;;;11.29;73.00
32081;BME280;18593;51.426;7.030;2023-03-14T01:44:18;98060.84;;;11.25;73.25
32081;BME280;18593;51.426;7.030;2023-03-14T01:46:45;98068.06;;;11.24;73.54
32081;BME280;18593;51.426;7.030;2023-03-14T01:49:32;98069.94;;;11.24;73.13
32081;BME280;18593;51.426;7.030;2023-03-14T01:52:10;98066.97;;;11.25;73.55
32081;BME280;18593;51.426;7.030;2023-03-14T01:54:41;98071.03;;;11.18;73.88
32081;BME280;18593;51.426;7.030;2023-03-14T01:57:11;98063.53;;;11.20;73.74
32081;BME280;18593;51.426;7.030;2023-03-14T01:59:39;98064.34;;;11.20;73.71
32081;BME280;18593;51.426;7.030;2023-03-14T02:02:07;98061.69;;;11.15;73.35
32081;BME280;18593;51.426;7.030;2023-03-14T02:04:36;98060.16;;;11.04;74.00
32081;BME280;18593;51.426;7.030;2023-03-14T02:07:07;98062.53;;;11.05;74.40
32081;BME280;18593;51.426;7.030;2023-03-14T02:09:42;98062.53;;;11.05;74.14
32081;BME280;18593;51.426;7.030;2023-03-14T02:12:15;98056.16;;;11.01;74.07
32081;BME280;18593;51.426;7.030;2023-03-14T02:14:46;98056.16;;;11.01;74.29
32081;BME280;18593;51.426;7.030;2023-03-14T02:17:19;98047.91;;;11.03;74.29
32081;BME280;18593;51.426;7.030;2023-03-14T02:20:16;98056.94;;;11.02;74.24
32081;BME280;18593;51.426;7.030;2023-03-14T02:22:54;98052.97;;;10.99;74.22
32081;BME280;18593;51.426;7.030;2023-03-14T02:25:24;98051.63;;;11.02;74.24
32081;BME280;18593;51.426;7.030;2023-03-14T02:27:57;98054.28;;;11.02;74.09
32081;BME280;18593;51.426;7.030;2023-03-14T02:30:26;98057.50;;;10.99;74.12
32081;BME280;18593;51.426;7.030;2023-03-14T02:32:55;98053.78;;;11.00;74.60
32081;BME280;18593;51.426;7.030;2023-03-14T02:35:26;98060.44;;;10.97;74.35
32081;BME280;18593;51.426;7.030;2023-03-14T02:37:55;98049.53;;;10.94;74.22
32081;BME280;18593;51.426;7.030;2023-03-14T02:40:27;98050.56;;;10.98;74.36
32081;BME280;18593;51.426;7.030;2023-03-14T02:42:54;98048.44;;;11.00;74.34
32081;BME280;18593;51.426;7.030;2023-03-14T02:45:40;98050.56;;;10.98;74.63
32081;BME280;18593;51.426;7.030;2023-03-14T02:48:11;98064.44;;;11.00;74.38
32081;BME280;18593;51.426;7.030;2023-03-14T02:50:41;98055.09;;;10.97;74.77
32081;BME280;18593;51.426;7.030;2023-03-14T02:53:08;98052.72;;;10.96;74.79
32081;BME280;18593;51.426;7.030;2023-03-14T02:55:36;98050.84;;;10.96;74.66
32081;BME280;18593;51.426;7.030;2023-03-14T02:58:09;98043.63;;;10.97;74.73
32081;BME280;18593;51.426;7.030;2023-03-14T03:00:37;98039.38;;;10.96;74.47
32081;BME280;18593;51.426;7.030;2023-03-14T03:03:07;98035.63;;;10.97;74.20
32081;BME280;18593;51.426;7.030;2023-03-14T03:05:34;98040.72;;;10.98;74.44
32081;BME280;18593;51.426;7.030;2023-03-14T03:08:02;98034.56;;;10.98;74.04
32081;BME280;18593;51.426;7.030;2023-03-14T03:10:30;98027.91;;;10.95;73.75
32081;BME280;18593;51.426;7.030;2023-03-14T03:12:58;98026.03;;;10.96;73.78
32081;BME280;18593;51.426;7.030;2023-03-14T03:15:26;98018.88;;;10.91;73.84
32081;BME280;18593;51.426;7.030;2023-03-14T03:17:56;98021.81;;;10.90;73.60
32081;BME280;18593;51.426;7.030;2023-03-14T03:20:23;98017.28;;;10.85;73.89
32081;BME280;18593;51.426;7.030;2023-03-14T03:22:50;98010.91;;;10.81;73.63
32081;BME280;18593;51.426;7.030;2023-03-14T03:25:17;98010.63;;;10.82;73.86
32081;BME280;18593;51.426;7.030;2023-03-14T03:27:45;98006.09;;;10.83;73.75
32081;BME280;18593;51.426;7.030;2023-03-14T03:30:16;98000.75;;;10.83;73.67
32081;BME280;18593;51.426;7.030;2023-03-14T03:32:43;97999.72;;;10.84;73.53
32081;BME280;18593;51.426;7.030;2023-03-14T03:35:12;97999.16;;;10.87;73.46
32081;BME280;18593;51.426;7.030;2023-03-14T03:37:41;97994.88;;;10.91;73.37
32081;BME280;18593;51.426;7.030;2023-03-14T03:40:09;98006.31;;;10.92;73.38
32081;BME280;18593;51.426;7.030;2023-03-14T03:42:36;98014.88;;;10.94;73.17
32081;BME280;18593;51.426;7.030;2023-03-14T03:45:07;98009.53;;;10.94;73.37
32081;BME280;18593;51.426;7.030;2023-03-14T03:47:39;98018.59;;;10.93;73.49
32081;BME280;18593;51.426;7.030;2023-03-14T03:50:07;98011.66;;;10.92;74.04
32081;BME280;18593;51.426;7.030;2023-03-14T03:52:36;98011.16;;;10.90;74.67
32081;BME280;18593;51.426;7.030;2023-03-14T03:55:03;98009.28;;;10.90;74.42
32081;BME280;18593;51.426;7.030;2023-03-14T03:57:30;98008.19;;;10.91;74.45
32081;BME280;18593;51.426;7.030;2023-03-14T03:59:57;97995.41;;;10.88;74.55
32081;BME280;18593;51.426;7.030;2023-03-14T04:02:24;98006.88;;;10.89;74.59
32081;BME280;18593;51.426;7.030;2023-03-14T04:04:51;98007.16;;;10.87;74.75
32081;BME280;18593;51.426;7.030;2023-03-14T04:07:18;98006.34;;;10.87;74.68
32081;BME280;18593;51.426;7.030;2023-03-14T04:09:47;98012.75;;;10.86;74.52
32081;BME280;18593;51.426;7.030;2023-03-14T04:12:36;98006.63;;;10.85;74.31
32081;BME280;18593;51.426;7.030;2023-03-14T04:15:10;98009.59;;;10.78;74.59
32081;BME280;18593;51.426;7.030;2023-03-14T04:17:40;98005.88;;;10.74;75.03
32081;BME280;18593;51.426;7.030;2023-03-14T04:20:08;98004.53;;;10.72;75.27
32081;BME280;18593;51.426;7.030;2023-03-14T04:22:37;98003.75;;;10.71;75.42
32081;BME280;18593;51.426;7.030;2023-03-14T04:25:07;98008.56;;;10.69;75.65
32081;BME280;18593;51.426;7.030;2023-03-14T04:27:39;98005.94;;;10.64;76.14
32081;BME280;18593;51.426;7.030;2023-03-14T04:30:15;98016.06;;;10.57;76.58
32081;BME280;18593;51.426;7.030;2023-03-14T04:32:47;98005.13;;;10.58;76.61
32081;BME280;18593;51.426;7.030;2023-03-14T04:35:15;98009.13;;;10.61;76.34
32081;BME280;18593;51.426;7.030;2023-03-14T04:37:42;98002.72;;;10.62;75.85
32081;BME280;18593;51.426;7.030;2023-03-14T04:40:12;98001.69;;;10.53;75.79
32081;BME280;18593;51.426;7.030;2023-03-14T04:42:39;97999.00;;;10.53;75.87
32081;BME280;18593;51.426;7.030;2023-03-14T04:45:07;97996.34;;;10.53;75.83
32081;BME280;18593;51.426;7.030;2023-03-14T04:47:37;97993.94;;;10.56;75.64
32081;BME280;18593;51.426;7.030;2023-03-14T04:50:05;98002.72;;;10.57;75.60
32081;BME280;18593;51.426;7.030;2023-03-14T04:52:32;97997.38;;;10.62;75.34
32081;BME280;18593;51.426;7.030;2023-03-14T04:55:00;98003.81;;;10.56;75.40
32081;BME280;18593;51.426;7.030;2023-03-14T04:57:28;97994.75;;;10.52;75.66
32081;BME280;18593;51.426;7.030;2023-03-14T04:59:55;97983.56;;;10.55;75.49
32081;BME280;18593;51.426;7.030;2023-03-14T05:02:38;97989.41;;;10.57;75.38
32081;BME280;18593;51.426;7.030;2023-03-14T05:05:21;97987.03;;;10.55;75.50
32081;BME280;18593;51.426;7.030;2023-03-14T05:08:04;97973.41;;;10.57;75.16
32081;BME280;18593;51.426;7.030;2023-03-14T05:10:50;97967.56;;;10.55;75.43
32081;BME280;18593;51.426;7.030;2023-03-14T05:13:47;97973.97;;;10.59;75.27
32081;BME280;18593;51.426;7.030;2023-03-14T05:16:43;97960.88;;;10.57;75.13
32081;BME280;18593;51.426;7.030;2023-03-14T05:19:30;97955.31;;;10.59;75.09
32081;BME280;18593;51.426;7.030;2023-03-14T05:22:15;97951.56;;;10.60;74.83
32081;BME280;18593;51.426;7.030;2023-03-14T05:24:55;97944.06;;;10.62;74.57
32081;BME280;18593;51.426;7.030;2023-03-14T05:27:29;97941.13;;;10.64;74.46
32081;BME280;18593;51.426;7.030;2023-03-14T05:30:20;97935.53;;;10.65;74.88
32081;BME280;18593;51.426;7.030;2023-03-14T05:32:47;97930.22;;;10.65;74.53
32081;BME280;18593;51.426;7.030;2023-03-14T05:35:33;97917.69;;;10.66;74.52
32081;BME280;18593;51.426;7.030;2023-03-14T05:38:16;97930.22;;;10.65;74.56
32081;BME280;18593;51.426;7.030;2023-03-14T05:40:44;97935.53;;;10.65;74.35
32081;BME280;18593;51.426;7.030;2023-03-14T05:43:41;97933.69;;;10.66;74.57
32081;BME280;18593;51.426;7.030;2023-03-14T05:46:23;97926.47;;;10.66;74.31
32081;BME280;18593;51.426;7.030;2023-03-14T05:49:16;97913.44;;;10.65;74.48
32081;BME280;18593;51.426;7.030;2023-03-14T05:51:53;97926.75;;;10.65;74.50
32081;BME280;18593;51.426;7.030;2023-03-14T05:54:42;97929.41;;;10.65;74.68
32081;BME280;18593;51.426;7.030;2023-03-14T05:57:29;97923.28;;;10.64;74.57
32081;BME280;18593;51.426;7.030;2023-03-14T06:00:17;97910.75;;;10.65;74.77
32081;BME280;18593;51.426;7.030;2023-03-14T06:03:01;97915.00;;;10.66;74.78
32081;BME280;18593;51.426;7.030;2023-03-14T06:05:32;97914.22;;;10.65;75.10
32081;BME280;18593;51.426;7.030;2023-03-14T06:08:01;97904.63;;;10.64;75.00
32081;BME280;18593;51.426;7.030;2023-03-14T06:10:30;97907.31;;;10.64;74.94
32081;BME280;18593;51.426;7.030;2023-03-14T06:12:57;97906.22;;;10.65;75.01
32081;BME280;18593;51.426;7.030;2023-03-14T06:15:24;97910.47;;;10.66;75.12
32081;BME280;18593;51.426;7.030;2023-03-14T06:17:54;97914.22;;;10.65;75.88
32081;BME280;18593;51.426;7.030;2023-03-14T06:20:23;97911.56;;;10.65;75.73
32081;BME280;18593;51.426;7.030;2023-03-14T06:22:50;97917.69;;;10.66;75.69
32081;BME280;18593;51.426;7.030;2023-03-14T06:25:17;97909.69;;;10.66;75.77
32081;BME280;18593;51.426;7.030;2023-03-14T06:27:47;97925.41;;;10.62;76.85
32081;BME280;18593;51.426;7.030;2023-03-14T06:30:15;97930.25;;;10.60;77.23
32081;BME280;18593;51.426;7.030;2023-03-14T06:32:43;97922.25;;;10.60;77.47
32081;BME280;18593;51.426;7.030;2023-03-14T06:35:13;97931.31;;;10.59;77.89
32081;BME280;18593;51.426;7.030;2023-03-14T06:37:44;97929.69;;;10.58;78.06
32081;BME280;18593;51.426;7.030;2023-03-14T06:40:12;97927.56;;;10.60;77.65
32081;BME280;18593;51.426;7.030;2023-03-14T06:42:59;97925.13;;;10.64;77.79
32081;BME280;18593;51.426;7.030;2023-03-14T06:45:29;97924.09;;;10.65;77.66
32081;BME280;18593;51.426;7.030;2023-03-14T06:47:57;97930.22;;;10.65;78.18
32081;BME280;18593;51.426;7.030;2023-03-14T07:55:23;97958.16;;;10.73;81.63
32081;BME280;18593;51.426;7.030;2023-03-14T07:57:49;97958.44;;;10.71;81.81
32081;BME280;18593;51.426;7.030;2023-03-14T08:00:17;97958.97;;;10.68;82.65
32081;BME280;18593;51.426;7.030;2023-03-14T08:02:44;97961.41;;;10.65;82.79
32081;BME280;18593;51.426;7.030;2023-03-14T08:05:11;97963.00;;;10.66;83.21
32081;BME280;18593;51.426;7.030;2023-03-14T08:07:38;97957.66;;;10.66;83.63
32081;BME280;18593;51.426;7.030;2023-03-14T08:10:07;97960.84;;;10.68;83.83
32081;BME280;18593;51.426;7.030;2023-03-14T08:12:37;97956.84;;;10.70;83.42
32081;BME280;18593;51.426;7.030;2023-03-14T08:15:05;97962.69;;;10.72;83.69
32081;BME280;18593;51.426;7.030;2023-03-14T08:17:32;97965.59;;;10.76;84.40
32081;BME280;18593;51.426;7.030;2023-03-14T08:19:59;97966.94;;;10.78;84.52
32081;BME280;18593;51.426;7.030;2023-03-14T08:22:26;97964.00;;;10.80;84.61
32081;BME280;18593;51.426;7.030;2023-03-14T08:24:53;97959.72;;;10.84;84.55
32081;BME280;18593;51.426;7.030;2023-03-14T08:27:20;97960.22;;;10.86;84.66
32081;BME280;18593;51.426;7.030;2023-03-14T08:29:48;97964.47;;;10.87;85.05
32081;BME280;18593;51.426;7.030;2023-03-14T08:32:15;97979.69;;;10.87;85.24
32081;BME280;18593;51.426;7.030;2023-03-14T08:34:42;97972.75;;;10.86;85.25
32081;BME280;18593;51.426;7.030;2023-03-14T08:37:09;97976.25;;;10.81;85.79
32081;BME280;18593;51.426;7.030;2023-03-14T08:39:36;97975.97;;;10.82;85.79
32081;BME280;18593;51.426;7.030;2023-03-14T08:42:03;97971.69;;;10.87;85.34
32081;BME280;18593;51.426;7.030;2023-03-14T08:44:30;97978.88;;;10.91;85.84
32081;BME280;18593;51.426;7.030;2023-03-14T08:46:58;97967.41;;;10.91;86.06
32081;BME280;18593;51.426;7.030;2023-03-14T08:49:25;97979.41;;;10.93;86.00
32081;BME280;18593;51.426;7.030;2023-03-14T08:51:52;97980.19;;;10.94;85.79
32081;BME280;18593;51.426;7.030;2023-03-14T08:54:19;97982.03;;;10.98;86.07
32081;BME280;18593;51.426;7.030;2023-03-14T08:56:46;97981.75;;;11.00;85.70
32081;BME280;18593;51.426;7.030;2023-03-14T08:59:13;97990.84;;;10.99;85.46
32081;BME280;18593;51.426;7.030;2023-03-14T09:01:40;97983.63;;;10.99;85.55
32081;BME280;18593;51.426;7.030;2023-03-14T09:04:09;97994.56;;;10.98;85.52
32081;BME280;18593;51.426;7.030;2023-03-14T09:06:36;97997.50;;;10.96;85.70
32081;BME280;18593;51.426;7.030;2023-03-14T09:09:03;97996.44;;;10.97;85.00
32081;BME280;18593;51.426;7.030;2023-03-14T09:11:30;98003.66;;;10.92;84.48
32081;BME280;18593;51.426;7.030;2023-03-14T09:13:57;98010.88;;;10.86;83.89
32081;BME280;18593;51.426;7.030;2023-03-14T09:16:24;98015.47;;;10.75;83.38
32081;BME280;18593;51.426;7.030;2023-03-14T09:18:51;98025.59;;;10.73;83.73
32081;BME280;18593;51.426;7.030;2023-03-14T09:21:21;98014.41;;;10.71;84.02
32081;BME280;18593;51.426;7.030;2023-03-14T09:23:48;98026.66;;;10.72;83.95
32081;BME280;18593;51.426;7.030;2023-03-14T09:26:15;98046.94;;;10.68;84.28
32081;BME280;18593;51.426;7.030;2023-03-14T09:28:42;98077.09;;;10.69;84.37
32081;BME280;18593;51.426;7.030;2023-03-14T09:31:10;98092.25;;;10.63;83.50
32081;BME280;18593;51.426;7.030;2023-03-14T09:33:38;98110.91;;;10.63;83.14
32081;BME280;18593;51.426;7.030;2023-03-14T09:36:06;98109.59;;;10.61;81.33
32081;BME280;18593;51.426;7.030;2023-03-14T09:38:35;98118.44;;;10.46;80.13
32081;BME280;18593;51.426;7.030;2023-03-14T09:41:06;98144.00;;;10.42;79.60
32081;BME280;18593;51.426;7.030;2023-03-14T09:43:38;98149.84;;;10.34;77.81
32081;BME280;18593;51.426;7.030;2023-03-14T09:46:07;98164.25;;;10.27;78.83
32081;BME280;18593;51.426;7.030;2023-03-14T09:48:36;98173.53;;;10.20;78.82
32081;BME280;18593;51.426;7.030;2023-03-14T09:51:06;98179.13;;;10.18;79.35
32081;BME280;18593;51.426;7.030;2023-03-14T09:53:41;98194.59;;;10.21;78.96
32081;BME280;18593;51.426;7.030;2023-03-14T09:56:11;98201.22;;;10.14;78.58
32081;BME280;18593;51.426;7.030;2023-03-14T09:58:40;98219.31;;;10.01;77.90
32081;BME280;18593;51.426;7.030;2023-03-14T10:01:09;98231.56;;;10.02;78.64
32081;BME280;18593;51.426;7.030;2023-03-14T10:03:38;98240.88;;;10.05;78.59
32081;BME280;18593;51.426;7.030;2023-03-14T10:06:10;98256.03;;;9.94;78.12
32081;BME280;18593;51.426;7.030;2023-03-14T10:08:40;98258.47;;;9.96;78.30
32081;BME280;18593;51.426;7.030;2023-03-14T10:11:14;98262.94;;;9.90;77.26
32081;BME280;18593;51.426;7.030;2023-03-14T10:13:49;98280.53;;;9.91;78.12
32081;BME280;18593;51.426;7.030;2023-03-14T10:16:16;98294.09;;;9.95;78.13
32081;BME280;18593;51.426;7.030;2023-03-14T10:18:46;98288.28;;;9.98;78.15
32081;BME280;18593;51.426;7.030;2023-03-14T10:21:21;98307.97;;;9.97;78.02
32081;BME280;18593;51.426;7.030;2023-03-14T10:23:52;98307.97;;;9.97;77.92
32081;BME280;18593;51.426;7.030;2023-03-14T10:26:24;98320.75;;;9.95;77.17
32081;BME280;18593;51.426;7.030;2023-03-14T10:29:00;98324.44;;;9.89;76.90
32081;BME280;18593;51.426;7.030;2023-03-14T10:31:28;98337.72;;;9.84;76.47
32081;BME280;18593;51.426;7.030;2023-03-14T10:34:15;98349.66;;;9.76;76.04
32081;BME280;18593;51.426;7.030;2023-03-14T10:36:45;98365.31;;;9.62;76.53
32081;BME280;18593;51.426;7.030;2023-03-14T10:39:24;98392.72;;;9.63;77.81
32081;BME280;18593;51.426;7.030;2023-03-14T10:41:54;98383.63;;;9.59;77.75
32081;BME280;18593;51.426;7.030;2023-03-14T10:44:23;98400.66;;;9.58;77.93
32081;BME280;18593;51.426;7.030;2023-03-14T10:46:56;98417.47;;;9.63;78.14
32081;BME280;18593;51.426;7.030;2023-03-14T10:49:27;98443.31;;;9.68;78.43
32081;BME280;18593;51.426;7.030;2023-03-14T10:51:54;98462.72;;;9.63;77.61
32081;BME280;18593;51.426;7.030;2023-03-14T10:54:23;98468.75;;;9.53;75.66
32081;BME280;18593;51.426;7.030;2023-03-14T10:57:00;98490.31;;;9.52;75.84
32081;BME280;18593;51.426;7.030;2023-03-14T10:59:34;98496.88;;;9.44;74.94
32081;BME280;18593;51.426;7.030;2023-03-14T11:02:04;98511.47;;;9.42;74.29
32081;BME280;18593;51.426;7.030;2023-03-14T11:04:48;98515.50;;;9.44;74.55
32081;BME280;18593;51.426;7.030;2023-03-14T11:07:21;98531.22;;;9.46;74.00
32081;BME280;18593;51.426;7.030;2023-03-14T11:09:53;98542.31;;;9.38;73.34
32081;BME280;18593;51.426;7.030;2023-03-14T11:12:32;98555.06;;;9.36;73.42
32081;BME280;18593;51.426;7.030;2023-03-14T11:15:03;98567.25;;;9.32;73.28
32081;BME280;18593;51.426;7.030;2023-03-14T11:17:37;98590.84;;;9.23;72.56
32081;BME280;18593;51.426;7.030;2023-03-14T11:20:17;98588.97;;;9.23;72.05
32081;BME280;18593;51.426;7.030;2023-03-14T11:22:52;98613.47;;;9.25;72.55
32081;BME280;18593;51.426;7.030;2023-03-14T11:25:26;98623.84;;;9.27;72.28
32081;BME280;18593;51.426;7.030;2023-03-14T11:28:01;98634.81;;;9.31;72.34
32081;BME280;18593;51.426;7.030;2023-03-14T11:30:34;98639.06;;;9.32;72.07
32081;BME280;18593;51.426;7.030;2023-03-14T11:33:08;98643.78;;;9.24;71.15
32081;BME280;18593;51.426;7.030;2023-03-14T11:35:42;98651.75;;;9.24;70.83
32081;BME280;18593;51.426;7.030;2023-03-14T11:38:19;98664.56;;;9.27;70.91
32081;BME280;18593;51.426;7.030;2023-03-14T11:40:52;98668.84;;;9.28;70.91
32081;BME280;18593;51.426;7.030;2023-03-14T11:43:24;98670.44;;;9.29;71.48
32081;BME280;18593;51.426;7.030;2023-03-14T11:45:54;98687.69;;;9.27;70.74
32081;BME280;18593;51.426;7.030;2023-03-14T11:48:28;98695.44;;;9.28;70.63
32081;BME280;18593;51.426;7.030;2023-03-14T11:50:57;98694.88;;;9.26;69.90
32081;BME280;18593;51.426;7.030;2023-03-14T11:53:36;98706.09;;;9.28;70.15
32081;BME280;18593;51.426;7.030;2023-03-14T11:56:09;98719.94;;;9.31;70.32
32081;BME280;18593;51.426;7.030;2023-03-14T11:58:37;98728.16;;;9.29;69.87
32081;BME280;18593;51.426;7.030;2023-03-14T12:01:13;98735.75;;;9.20;69.06
32081;BME280;18593;51.426;7.030;2023-03-14T12:03:49;98737.78;;;9.13;68.11
32081;BME280;18593;51.426;7.030;2023-03-14T12:06:22;98737.00;;;9.13;68.71
32081;BME280;18593;51.426;7.030;2023-03-14T12:08:52;98745.13;;;9.06;66.59
32081;BME280;18593;51.426;7.030;2023-03-14T12:11:28;98757.28;;;9.02;67.72
32081;BME280;18593;51.426;7.030;2023-03-14T12:13:56;98756.75;;;9.00;68.54
32081;BME280;18593;51.426;7.030;2023-03-14T12:16:35;98766.97;;;9.08;69.72
32081;BME280;18593;51.426;7.030;2023-03-14T12:19:32;98767.59;;;9.15;69.97
32081;BME280;18593;51.426;7.030;2023-03-14T12:24:49;98786.88;;;9.22;69.65
32081;BME280;18593;51.426;7.030;2023-03-14T12:27:44;98784.28;;;9.27;69.68
32081;BME280;18593;51.426;7.030;2023-03-14T12:30:17;98800.06;;;9.34;69.20
32081;BME280;18593;51.426;7.030;2023-03-14T12:36:05;98814.56;;;9.43;69.16
32081;BME280;18593;51.426;7.030;2023-03-14T12:38:56;98823.91;;;9.46;68.52
32081;BME280;18593;51.426;7.030;2023-03-14T12:41:28;98829.53;;;9.49;68.43
32081;BME280;18593;51.426;7.030;2023-03-14T12:43:58;98835.13;;;9.48;67.46
32081;BME280;18593;51.426;7.030;2023-03-14T12:46:46;98841.50;;;9.47;66.38
32081;BME280;18593;51.426;7.030;2023-03-14T12:49:13;98857.34;;;9.42;66.24
32081;BME280;18593;51.426;7.030;2023-03-14T12:51:41;98859.47;;;9.40;66.32
32081;BME280;18593;51.426;7.030;2023-03-14T12:54:34;98888.47;;;9.41;67.57
32081;BME280;18593;51.426;7.030;2023-03-14T12:57:11;98918.81;;;9.40;67.03
32081;BME280;18593;51.426;7.030;2023-03-14T12:59:47;98928.81;;;9.33;67.61
32081;BME280;18593;51.426;7.030;2023-03-14T13:02:25;98944.81;;;9.21;66.70
32081;BME280;18593;51.426;7.030;2023-03-14T13:05:00;98945.69;;;9.10;66.67
32081;BME280;18593;51.426;7.030;2023-03-14T13:07:35;98953.22;;;9.13;67.29
32081;BME280;18593;51.426;7.030;2023-03-14T13:10:19;98957.47;;;9.14;67.65
32081;BME280;18593;51.426;7.030;2023-03-14T13:12:51;98974.72;;;9.12;67.52
32081;BME280;18593;51.426;7.030;2023-03-14T13:15:27;98979.72;;;9.08;67.02
32081;BME280;18593;51.426;7.030;2023-03-14T13:17:59;98983.50;;;9.12;68.14
32081;BME280;18593;51.426;7.030;2023-03-14T13:20:29;98993.31;;;9.12;66.48
32081;BME280;18593;51.426;7.030;2023-03-14T13:22:57;99001.22;;;9.07;67.87
32081;BME280;18593;51.426;7.030;2023-03-14T13:25:24;99004.13;;;9.05;65.79
32081;BME280;18593;51.426;7.030;2023-03-14T13:27:57;99006.69;;;9.00;65.90
32081;BME280;18593;51.426;7.030;2023-03-14T13:30:27;99028.09;;;8.93;65.84
32081;BME280;18593;51.426;7.030;2023-03-14T13:32:55;99023.25;;;8.90;66.00
32081;BME280;18593;51.426;7.030;2023-03-14T13:35:25;99036.78;;;8.89;65.43
32081;BME280;18593;51.426;7.030;2023-03-14T13:37:55;99034.81;;;8.84;65.27
32081;BME280;18593;51.426;7.030;2023-03-14T13:40:28;99035.38;;;8.86;65.50
32081;BME280;18593;51.426;7.030;2023-03-14T13:43:04;99046.47;;;8.83;65.05
32081;BME280;18593;51.426;7.030;2023-03-14T13:45:49;99051.78;;;8.83;65.62
32081;BME280;18593;51.426;7.030;2023-03-14T13:48:16;99054.00;;;8.86;66.02
32081;BME280;18593;51.426;7.030;2023-03-14T13:50:51;99053.53;;;8.89;65.95
32081;BME280;18593;51.426;7.030;2023-03-14T13:53:20;99057.56;;;8.92;65.85
32081;BME280;18593;51.426;7.030;2023-03-14T14:12:33;99101.94;;;9.03;64.52
32081;BME280;18593;51.426;7.030;2023-03-14T14:15:03;99096.63;;;9.03;63.62
32081;BME280;18593;51.426;7.030;2023-03-14T14:17:32;99100.31;;;9.02;62.94
32081;BME280;18593;51.426;7.030;2023-03-14T14:20:01;99103.56;;;9.04;63.75
32081;BME280;18593;51.426;7.030;2023-03-14T14:22:30;99103.31;;;9.06;62.67
32081;BME280;18593;51.426;7.030;2023-03-14T14:24:59;99112.44;;;9.10;63.57
32081;BME280;18593;51.426;7.030;2023-03-14T14:27:28;99114.06;;;9.11;62.07
32081;BME280;18593;51.426;7.030;2023-03-14T14:30:00;99123.88;;;9.10;60.94
32081;BME280;18593;51.426;7.030;2023-03-14T14:32:34;99135.78;;;9.08;59.19
32081;BME280;18593;51.426;7.030;2023-03-14T14:35:01;99138.34;;;9.02;57.50
32081;BME280;18593;51.426;7.030;2023-03-14T14:37:31;99139.63;;;9.00;58.27
32081;BME280;18593;51.426;7.030;2023-03-14T14:40:00;99154.31;;;9.02;59.58
32081;BME280;18593;51.426;7.030;2023-03-14T14:42:30;99156.97;;;9.02;56.96
32081;BME280;18593;51.426;7.030;2023-03-14T14:44:59;99155.84;;;8.98;55.00
32081;BME280;18593;51.426;7.030;2023-03-14T14:47:27;99160.00;;;8.94;54.17
32081;BME280;18593;51.426;7.030;2023-03-14T14:49:58;99171.09;;;8.91;53.97
32081;BME280;18593;51.426;7.030;2023-03-14T14:52:33;99161.03;;;8.93;55.67